Time;durP1;ratioP1;P1;durP2;ratioP2;P2;SDS_P1;SDS_P2;PMS_P1;PMS_P2;Temp;Humidity;BMP_temperature;BMP_pressure;BME280_temperature;BME280_humidity;BME280_pressure;Samples;Min_cycle;Max_cycle;Signal;HPM_P1;HPM_P2
2020/12/04 00:02:06;;;;;;;0.75;0.75;;;8.10;99.90;;;;;;4953548;28;20186;-74
2020/12/04 00:04:32;;;;;;;0.75;0.75;;;8.20;99.90;;;;;;4954598;28;20174;-75
2020/12/04 00:07:02;;;;;;;0.22;0.22;;;8.20;99.90;;;;;;4954877;28;20594;-75
2020/12/04 00:09:27;;;;;;;0.82;0.82;;;8.10;99.90;;;;;;4954366;28;20233;-75
2020/12/04 00:11:53;;;;;;;0.50;0.50;;;8.00;99.90;;;;;;4954520;28;20240;-74
2020/12/04 00:14:19;;;;;;;0.43;0.40;;;7.90;99.90;;;;;;4954585;28;20167;-74
2020/12/04 00:16:45;;;;;;;0.25;0.25;;;7.80;99.90;;;;;;4954247;28;20631;-73
2020/12/04 00:19:11;;;;;;;0.20;0.20;;;8.00;99.90;;;;;;4954494;28;20155;-75
2020/12/04 00:21:36;;;;;;;0.82;0.30;;;8.00;99.90;;;;;;4954440;28;20686;-72
2020/12/04 00:24:02;;;;;;;0.45;0.45;;;7.90;99.90;;;;;;4954441;28;20171;-75
2020/12/04 00:26:28;;;;;;;0.28;0.28;;;7.90;99.90;;;;;;4954275;28;20171;-75
2020/12/04 00:28:53;;;;;;;0.30;0.30;;;7.90;99.90;;;;;;4954440;28;20194;-74
2020/12/04 00:31:19;;;;;;;0.57;0.57;;;7.90;99.90;;;;;;4954373;28;20187;-74
2020/12/04 00:33:45;;;;;;;0.30;0.30;;;7.90;99.90;;;;;;4954287;28;20210;-73
2020/12/04 00:36:10;;;;;;;0.20;0.20;;;7.90;99.90;;;;;;4954221;28;20162;-75
2020/12/04 00:38:36;;;;;;;0.55;0.55;;;7.90;99.90;;;;;;4954879;28;20646;-75
2020/12/04 00:41:02;;;;;;;0.75;0.75;;;7.90;99.90;;;;;;4954330;28;20197;-74
2020/12/04 00:43:28;;;;;;;0.30;0.30;;;8.00;99.90;;;;;;4957183;28;20205;-76
2020/12/04 00:45:54;;;;;;;4.88;1.60;;;8.00;99.90;;;;;;4957947;28;20163;-75
2020/12/04 00:48:19;;;;;;;1.13;1.08;;;8.10;99.90;;;;;;4957442;28;20221;-72
2020/12/04 00:50:45;;;;;;;8.85;2.10;;;8.00;99.90;;;;;;4957737;28;20193;-71
2020/12/04 00:53:10;;;;;;;1.67;1.58;;;8.20;99.90;;;;;;4957528;28;20214;-75
2020/12/04 00:55:36;;;;;;;0.90;0.90;;;8.20;99.90;;;;;;4957640;28;20155;-73
2020/12/04 00:58:03;;;;;;;5.47;3.88;;;8.10;99.90;;;;;;4957455;28;20181;-76
2020/12/04 01:00:28;;;;;;;0.47;0.47;;;7.90;99.90;;;;;;4957729;28;20158;-75
2020/12/04 01:02:54;;;;;;;0.82;0.82;;;8.00;99.90;;;;;;4957280;28;20650;-74
2020/12/04 01:05:19;;;;;;;1.45;1.45;;;7.90;99.90;;;;;;4957567;28;20603;-71
2020/12/04 01:07:45;;;;;;;0.95;0.95;;;8.00;99.90;;;;;;4957506;28;20222;-75
2020/12/04 01:10:11;;;;;;;0.52;0.52;;;8.10;99.90;;;;;;4957482;28;20170;-73
2020/12/04 01:12:36;;;;;;;0.40;0.40;;;8.10;99.90;;;;;;4957174;28;20206;-74
2020/12/04 01:15:02;;;;;;;0.10;0.10;;;8.20;99.90;;;;;;4957091;28;20186;-73
2020/12/04 01:17:29;;;;;;;0.20;0.20;;;8.10;99.90;;;;;;4957277;28;20214;-75
2020/12/04 01:19:54;;;;;;;0.30;0.30;;;8.00;99.90;;;;;;4957133;28;20173;-74
2020/12/04 01:22:20;;;;;;;0.20;0.20;;;8.10;99.90;;;;;;4957263;28;20198;-74
2020/12/04 01:24:46;;;;;;;0.20;0.20;;;8.10;99.90;;;;;;4957149;28;20202;-71
2020/12/04 01:27:11;;;;;;;0.17;0.17;;;8.10;99.90;;;;;;4956694;28;20202;-76
2020/12/04 01:29:37;;;;;;;0.10;0.10;;;8.10;99.90;;;;;;4956969;28;20178;-75
2020/12/04 01:32:02;;;;;;;0.20;0.20;;;8.10;99.90;;;;;;4957112;28;20198;-74
2020/12/04 01:34:28;;;;;;;0.20;0.20;;;8.10;99.90;;;;;;4956959;28;20685;-76
2020/12/04 01:36:53;;;;;;;1.75;0.50;;;8.10;99.90;;;;;;4957068;28;20174;-74
2020/12/04 01:39:19;;;;;;;0.20;0.20;;;8.20;99.90;;;;;;4956388;28;20225;-76
2020/12/04 01:41:45;;;;;;;0.47;0.47;;;8.20;99.90;;;;;;4957040;28;20186;-76
2020/12/04 01:44:11;;;;;;;0.10;0.10;;;8.20;99.90;;;;;;4956853;28;20182;-73
2020/12/04 01:46:36;;;;;;;0.20;0.20;;;8.20;99.90;;;;;;4956423;28;20173;-74
2020/12/04 01:49:02;;;;;;;0.15;0.15;;;8.20;99.90;;;;;;4956684;28;20163;-73
2020/12/04 01:51:30;;;;;;;0.10;0.10;;;8.20;99.90;;;;;;4956332;28;20226;-74
2020/12/04 01:53:56;;;;;;;0.10;0.10;;;8.20;99.90;;;;;;4954710;28;20539;-73
2020/12/04 01:56:21;;;;;;;0.20;0.20;;;8.10;99.90;;;;;;4956408;28;20159;-73
2020/12/04 01:58:47;;;;;;;0.10;0.10;;;8.10;99.90;;;;;;4956523;28;20637;-73
2020/12/04 02:01:15;;;;;;;0.20;0.20;;;8.10;99.90;;;;;;4956246;28;20534;-74
2020/12/04 02:03:42;;;;;;;0.47;0.47;;;8.00;99.90;;;;;;4956585;28;20169;-76
2020/12/04 02:06:18;;;;;;;0.32;0.32;;;8.10;99.90;;;;;;4956234;28;20163;-74
2020/12/04 02:08:51;;;;;;;0.20;0.20;;;8.20;99.90;;;;;;4956307;28;20226;-73
2020/12/04 02:11:20;;;;;;;0.20;0.20;;;8.20;99.90;;;;;;4956285;28;20194;-73
2020/12/04 02:13:47;;;;;;;0.20;0.20;;;8.10;99.90;;;;;;4955874;28;20206;-74
2020/12/04 02:16:16;;;;;;;0.20;0.20;;;8.10;99.90;;;;;;4956271;28;20229;-75
2020/12/04 02:18:42;;;;;;;0.40;0.40;;;8.20;99.90;;;;;;4954652;28;20609;-71
2020/12/04 02:21:08;;;;;;;0.15;0.15;;;8.30;99.90;;;;;;4956091;28;20225;-71
2020/12/04 02:23:34;;;;;;;0.20;0.20;;;8.30;99.90;;;;;;4954487;29;20178;-73
2020/12/04 02:26:01;;;;;;;0.30;0.30;;;8.30;99.90;;;;;;4956078;28;20301;-74
2020/12/04 02:28:37;;;;;;;0.30;0.30;;;8.20;99.90;;;;;;4955876;28;20159;-74
2020/12/04 02:31:05;;;;;;;0.20;0.20;;;8.20;99.90;;;;;;4955985;28;20273;-74
2020/12/04 02:33:31;;;;;;;0.10;0.10;;;8.30;99.90;;;;;;4955528;28;20341;-74
2020/12/04 02:35:57;;;;;;;0.10;0.10;;;8.30;99.90;;;;;;4955938;28;20163;-75
2020/12/04 02:38:24;;;;;;;0.30;0.30;;;8.30;99.90;;;;;;4956038;28;20174;-75
2020/12/04 02:40:50;;;;;;;0.20;0.20;;;8.30;99.90;;;;;;4954165;28;20258;-72
2020/12/04 02:43:16;;;;;;;0.17;0.17;;;8.40;99.90;;;;;;4955813;28;20178;-72
2020/12/04 02:45:42;;;;;;;0.20;0.20;;;8.50;99.90;;;;;;4955920;28;20162;-72
2020/12/04 02:48:08;;;;;;;0.30;0.30;;;8.50;99.90;;;;;;4955322;28;20193;-72
2020/12/04 02:50:34;;;;;;;0.10;0.10;;;8.50;99.90;;;;;;4955390;28;20185;-73
2020/12/04 02:52:59;;;;;;;0.82;0.35;;;8.50;99.90;;;;;;4955425;28;20210;-72
2020/12/04 02:55:25;;;;;;;0.57;0.57;;;8.50;99.90;;;;;;4955653;28;20664;-73
2020/12/04 02:57:50;;;;;;;0.20;0.20;;;8.60;99.90;;;;;;4955416;28;20170;-72
2020/12/04 03:00:16;;;;;;;0.20;0.20;;;8.60;99.90;;;;;;4955643;28;20177;-73
2020/12/04 03:02:41;;;;;;;0.47;0.47;;;8.70;99.90;;;;;;4955361;28;20190;-72
2020/12/04 03:05:07;;;;;;;0.20;0.20;;;8.70;99.90;;;;;;4955470;28;20167;-72
2020/12/04 03:07:32;;;;;;;0.20;0.20;;;8.70;99.90;;;;;;4955235;28;20311;-74
2020/12/04 03:09:58;;;;;;;0.10;0.10;;;8.90;99.90;;;;;;4954970;28;20186;-72
2020/12/04 03:12:24;;;;;;;0.10;0.10;;;8.90;99.90;;;;;;4955219;28;20206;-72
2020/12/04 03:14:50;;;;;;;0.20;0.20;;;8.90;99.90;;;;;;4955394;28;20171;-74
2020/12/04 03:17:15;;;;;;;0.20;0.20;;;8.80;99.90;;;;;;4954532;28;20668;-74
2020/12/04 03:19:41;;;;;;;0.32;0.32;;;8.80;99.90;;;;;;4955359;28;20209;-74
2020/12/04 03:22:06;;;;;;;0.45;0.45;;;8.60;99.90;;;;;;4955146;28;20585;-74
2020/12/04 03:24:33;;;;;;;0.20;0.20;;;8.60;99.90;;;;;;4955063;28;20554;-74
2020/12/04 03:26:59;;;;;;;0.10;0.10;;;8.60;99.90;;;;;;4954939;28;20527;-72
2020/12/04 03:29:25;;;;;;;0.10;0.10;;;8.70;99.90;;;;;;4954841;28;20159;-72
2020/12/04 03:31:51;;;;;;;0.10;0.10;;;8.70;99.90;;;;;;4955038;28;20638;-74
2020/12/04 03:34:16;;;;;;;0.10;0.10;;;8.70;99.90;;;;;;4953980;29;20182;-74
2020/12/04 03:36:42;;;;;;;0.20;0.20;;;8.70;99.90;;;;;;4954872;28;20225;-72
2020/12/04 03:39:07;;;;;;;0.20;0.20;;;8.70;99.90;;;;;;4955036;28;20490;-72
2020/12/04 03:41:33;;;;;;;0.28;0.28;;;8.70;99.90;;;;;;4954776;28;20709;-74
2020/12/04 03:43:58;;;;;;;0.10;0.10;;;8.70;99.90;;;;;;4954845;28;20538;-73
2020/12/04 03:46:24;;;;;;;0.20;0.20;;;8.60;99.90;;;;;;4954936;28;20221;-71
2020/12/04 03:48:49;;;;;;;0.13;0.13;;;8.70;99.90;;;;;;4954818;28;20190;-71
2020/12/04 03:51:15;;;;;;;0.20;0.20;;;8.70;99.90;;;;;;4954666;28;20650;-72
2020/12/04 03:53:41;;;;;;;0.10;0.10;;;8.60;99.90;;;;;;4954658;28;20225;-72
2020/12/04 03:56:06;;;;;;;0.10;0.10;;;8.60;99.90;;;;;;4954875;28;20163;-72
2020/12/04 03:58:32;;;;;;;0.20;0.20;;;8.70;99.90;;;;;;4954818;28;20194;-73
2020/12/04 04:00:58;;;;;;;0.20;0.20;;;8.70;99.90;;;;;;4954639;28;20606;-72
2020/12/04 04:03:23;;;;;;;0.20;0.20;;;8.80;99.90;;;;;;4954587;28;20170;-74
2020/12/04 04:05:49;;;;;;;0.10;0.10;;;8.80;99.90;;;;;;4954864;28;20255;-71
2020/12/04 04:08:14;;;;;;;0.10;0.10;;;8.80;99.90;;;;;;4954415;28;20305;-73
2020/12/04 04:10:40;;;;;;;0.20;0.20;;;8.80;99.90;;;;;;4954803;28;20178;-73
2020/12/04 04:13:05;;;;;;;0.75;0.75;;;8.80;99.90;;;;;;4954032;28;20716;-72
2020/12/04 04:15:31;;;;;;;0.20;0.20;;;8.80;99.90;;;;;;4954797;28;20623;-72
2020/12/04 04:17:59;;;;;;;0.30;0.30;;;8.90;99.90;;;;;;4956684;28;20187;-72
2020/12/04 04:20:27;;;;;;;0.15;0.15;;;8.90;99.90;;;;;;4958147;29;20221;-74
2020/12/04 04:22:53;;;;;;;0.20;0.20;;;9.00;99.90;;;;;;4958138;28;20273;-72
2020/12/04 04:25:19;;;;;;;0.10;0.10;;;8.90;99.90;;;;;;4974172;23;20251;-75
2020/12/04 04:27:44;;;;;;;0.50;0.50;;;8.90;99.90;;;;;;4976392;28;20190;-74
2020/12/04 04:30:11;;;;;;;0.20;0.20;;;8.90;99.90;;;;;;4977528;28;20244;-74
2020/12/04 04:32:37;;;;;;;2.53;0.38;;;8.80;99.90;;;;;;4977475;28;20284;-74
2020/12/04 04:35:04;;;;;;;0.47;0.47;;;8.80;99.90;;;;;;4977366;28;20242;-75
2020/12/04 04:37:30;;;;;;;0.20;0.20;;;8.90;99.90;;;;;;4977476;28;20257;-75
2020/12/04 04:39:56;;;;;;;0.10;0.10;;;8.90;99.90;;;;;;4977501;28;20201;-74
2020/12/04 04:42:21;;;;;;;0.20;0.20;;;8.80;99.90;;;;;;4977836;28;20668;-74
2020/12/04 04:44:47;;;;;;;0.20;0.20;;;8.80;99.90;;;;;;4977574;28;20174;-73
2020/12/04 04:47:17;;;;;;;0.10;0.10;;;8.80;99.90;;;;;;4977338;28;20503;-74
2020/12/04 04:49:50;;;;;;;0.20;0.20;;;8.80;99.90;;;;;;4977484;28;20170;-73
2020/12/04 04:52:17;;;;;;;0.20;0.20;;;8.80;99.90;;;;;;4977101;28;20213;-73
2020/12/04 04:54:48;;;;;;;0.10;0.10;;;8.80;99.90;;;;;;4978153;28;20253;-74
2020/12/04 04:57:15;;;;;;;0.10;0.10;;;8.70;99.90;;;;;;4977450;28;20181;-73
2020/12/04 04:59:41;;;;;;;0.10;0.10;;;8.50;99.90;;;;;;4978220;28;20528;-75
2020/12/04 05:02:12;;;;;;;0.17;0.17;;;8.40;99.90;;;;;;4977231;28;20182;-74
2020/12/04 05:04:54;;;;;;;0.25;0.25;;;8.30;99.90;;;;;;4977067;28;20641;-74
2020/12/04 05:07:33;;;;;;;0.10;0.10;;;8.10;99.90;;;;;;4976466;28;20185;-74
2020/12/04 05:10:16;;;;;;;0.38;0.38;;;8.00;99.90;;;;;;4976751;28;20541;-74
2020/12/04 05:12:44;;;;;;;0.10;0.10;;;7.90;99.90;;;;;;4977279;28;20214;-74
2020/12/04 05:15:23;;;;;;;0.10;0.10;;;7.90;99.90;;;;;;4977231;28;20212;-74
2020/12/04 05:18:05;;;;;;;0.10;0.10;;;7.80;99.90;;;;;;4976983;28;20178;-73
2020/12/04 05:20:33;;;;;;;1.23;1.13;;;7.70;99.90;;;;;;4977469;28;20252;-73
2020/12/04 05:22:59;;;;;;;0.10;0.10;;;7.70;99.90;;;;;;4977515;28;20182;-75
2020/12/04 05:25:25;;;;;;;0.90;0.73;;;7.70;99.90;;;;;;4976592;28;20178;-75
2020/12/04 05:27:50;;;;;;;0.20;0.20;;;7.80;99.90;;;;;;4975765;28;20189;-72
2020/12/04 05:30:26;;;;;;;0.30;0.30;;;7.80;99.90;;;;;;4976077;28;20170;-74
2020/12/04 05:33:03;;;;;;;0.20;0.20;;;7.90;99.90;;;;;;4976477;28;20217;-74
2020/12/04 05:35:28;;;;;;;0.10;0.10;;;8.00;99.90;;;;;;4975673;28;20189;-74
2020/12/04 05:38:13;;;;;;;0.10;0.10;;;8.10;99.90;;;;;;4976574;28;20582;-73
2020/12/04 05:40:42;;;;;;;0.20;0.20;;;8.10;99.90;;;;;;4976480;28;20170;-74
2020/12/04 05:43:09;;;;;;;0.10;0.10;;;8.20;99.90;;;;;;4976123;28;20201;-74
2020/12/04 05:45:34;;;;;;;0.20;0.20;;;8.10;99.90;;;;;;4959235;28;20519;-74
2020/12/04 05:48:00;;;;;;;0.20;0.20;;;8.10;99.90;;;;;;4976404;28;20286;-75
2020/12/04 05:50:26;;;;;;;0.20;0.20;;;8.20;99.90;;;;;;4976163;28;20204;-75
2020/12/04 05:52:51;;;;;;;0.10;0.10;;;8.20;99.90;;;;;;4976947;28;20240;-74
2020/12/04 05:55:17;;;;;;;0.10;0.10;;;8.20;99.90;;;;;;4977834;28;20185;-75
2020/12/04 05:57:46;;;;;;;0.10;0.10;;;8.30;99.90;;;;;;4981036;28;20685;-75
2020/12/04 06:00:15;;;;;;;0.10;0.10;;;8.20;99.90;;;;;;4980532;28;20166;-74
2020/12/04 06:02:41;;;;;;;0.20;0.20;;;8.30;99.90;;;;;;4976932;28;20234;-74
2020/12/04 06:05:10;;;;;;;0.10;0.10;;;8.40;99.90;;;;;;4976156;28;20162;-74
2020/12/04 06:07:38;;;;;;;0.10;0.10;;;8.50;99.90;;;;;;4975728;28;20205;-76
2020/12/04 06:10:04;;;;;;;0.10;0.10;;;8.40;99.90;;;;;;4975629;28;20169;-74
2020/12/04 06:12:30;;;;;;;0.17;0.17;;;8.40;99.90;;;;;;4975868;28;20213;-74
2020/12/04 06:15:25;;;;;;;0.10;0.10;;;8.30;99.90;;;;;;4975503;28;20225;-74
2020/12/04 06:17:59;;;;;;;0.10;0.10;;;8.20;99.90;;;;;;4975486;28;20245;-74
2020/12/04 06:20:24;;;;;;;0.10;0.10;;;8.30;99.90;;;;;;4975670;28;20201;-74
2020/12/04 06:23:10;;;;;;;0.10;0.10;;;8.30;99.90;;;;;;4975501;28;20221;-74
2020/12/04 06:25:56;;;;;;;0.10;0.10;;;8.20;99.90;;;;;;4975221;28;20313;-74
2020/12/04 06:28:28;;;;;;;0.10;0.10;;;8.30;99.90;;;;;;4975258;28;20534;-74
2020/12/04 06:30:56;;;;;;;0.10;0.10;;;8.20;99.90;;;;;;4975064;28;20180;-74
2020/12/04 06:33:37;;;;;;;0.10;0.10;;;8.20;99.90;;;;;;4975116;28;20664;-74
2020/12/04 06:36:04;;;;;;;0.10;0.10;;;8.30;99.90;;;;;;4975113;28;20166;-73
2020/12/04 06:38:33;;;;;;;0.10;0.10;;;8.30;99.90;;;;;;4973751;28;20244;-74
2020/12/04 06:41:18;;;;;;;0.10;0.10;;;8.20;99.90;;;;;;4974723;28;20213;-75
2020/12/04 06:43:45;;;;;;;0.13;0.13;;;8.30;99.90;;;;;;4975015;28;20169;-74
2020/12/04 06:46:34;;;;;;;0.80;0.32;;;8.20;99.90;;;;;;4975063;28;20217;-74
2020/12/04 06:49:23;;;;;;;0.20;0.20;;;8.10;99.90;;;;;;4974730;28;20162;-74
2020/12/04 06:52:23;;;;;;;0.20;0.20;;;8.10;99.90;;;;;;4974773;28;20198;-76
2020/12/04 06:54:50;;;;;;;0.10;0.10;;;8.10;99.90;;;;;;4973580;28;20553;-73
2020/12/04 06:57:21;;;;;;;0.20;0.20;;;8.10;99.90;;;;;;4974257;28;20630;-73
2020/12/04 06:59:47;;;;;;;0.10;0.10;;;8.20;99.90;;;;;;4974598;28;20166;-73
2020/12/04 07:02:18;;;;;;;0.10;0.10;;;8.20;99.90;;;;;;4974910;28;20189;-73
2020/12/04 07:04:49;;;;;;;0.10;0.10;;;8.20;99.90;;;;;;4974217;28;20166;-76
2020/12/04 07:07:21;;;;;;;0.20;0.20;;;8.10;99.90;;;;;;4974272;28;20169;-75
2020/12/04 07:10:01;;;;;;;0.10;0.10;;;8.20;99.90;;;;;;4974291;28;20645;-74
2020/12/04 07:12:29;;;;;;;0.10;0.10;;;8.30;99.90;;;;;;4974034;28;20359;-73
2020/12/04 07:14:56;;;;;;;0.10;0.10;;;8.30;99.90;;;;;;4974314;28;20538;-73
2020/12/04 07:17:24;;;;;;;0.10;0.10;;;8.40;99.90;;;;;;4974114;28;20170;-73
2020/12/04 07:19:52;;;;;;;0.28;0.28;;;8.30;99.90;;;;;;4974437;28;20166;-73
2020/12/04 07:22:20;;;;;;;0.10;0.10;;;8.40;99.90;;;;;;4974166;28;20233;-74
2020/12/04 07:24:48;;;;;;;0.30;0.30;;;8.30;99.90;;;;;;4972968;28;20219;-74
2020/12/04 07:27:15;;;;;;;0.10;0.10;;;8.30;99.90;;;;;;4973692;28;20600;-74
2020/12/04 07:29:41;;;;;;;0.20;0.20;;;8.30;99.90;;;;;;4974876;28;20177;-73
2020/12/04 07:32:07;;;;;;;0.10;0.10;;;8.40;99.90;;;;;;4974058;28;20221;-74
2020/12/04 07:34:36;;;;;;;0.30;0.30;;;8.40;99.90;;;;;;4973713;28;20236;-74
2020/12/04 07:37:02;;;;;;;0.10;0.10;;;8.50;99.90;;;;;;4973918;28;20188;-73
2020/12/04 07:39:31;;;;;;;0.10;0.10;;;8.50;99.90;;;;;;4973754;28;20166;-73
2020/12/04 07:41:59;;;;;;;0.20;0.20;;;8.50;99.90;;;;;;4973751;28;20189;-75
2020/12/04 07:44:51;;;;;;;0.20;0.20;;;8.40;99.90;;;;;;4974954;28;20216;-73
2020/12/04 07:47:18;;;;;;;0.20;0.20;;;8.30;99.90;;;;;;4973582;28;20197;-74
2020/12/04 07:49:49;;;;;;;0.10;0.10;;;8.30;99.90;;;;;;4966941;28;20189;-75
2020/12/04 07:52:23;;;;;;;0.30;0.30;;;8.30;99.90;;;;;;4984506;28;20247;-74
2020/12/04 07:55:03;;;;;;;0.30;0.30;;;8.20;99.90;;;;;;4996643;28;20177;-74
2020/12/04 07:57:52;;;;;;;0.10;0.10;;;8.40;99.90;;;;;;4976993;28;20170;-82
2020/12/04 08:00:18;;;;;;;0.65;0.65;;;8.40;99.90;;;;;;4976429;28;20645;-72
2020/12/04 08:02:43;;;;;;;0.43;0.43;;;8.40;99.90;;;;;;4976631;28;20224;-72
2020/12/04 08:05:19;;;;;;;0.20;0.20;;;8.40;99.90;;;;;;4982352;28;20176;-72
2020/12/04 08:07:51;;;;;;;0.17;0.17;;;8.20;99.90;;;;;;4976515;28;20177;-73
2020/12/04 08:10:19;;;;;;;0.10;0.10;;;8.30;99.90;;;;;;4976325;28;20174;-73
2020/12/04 08:12:47;;;;;;;0.35;0.35;;;8.20;99.90;;;;;;4976670;28;20361;-73
2020/12/04 08:15:13;;;;;;;0.30;0.30;;;8.30;99.90;;;;;;4976534;28;20189;-74
2020/12/04 08:17:41;;;;;;;0.17;0.17;;;8.30;99.90;;;;;;4976267;28;20197;-73
2020/12/04 08:20:17;;;;;;;0.20;0.20;;;8.30;99.90;;;;;;4976120;28;20210;-73
2020/12/04 08:22:49;;;;;;;0.10;0.10;;;8.40;99.90;;;;;;4976617;28;20313;-74
2020/12/04 08:25:21;;;;;;;0.20;0.20;;;8.50;99.90;;;;;;4977571;28;20189;-74
2020/12/04 08:27:47;;;;;;;0.30;0.30;;;8.50;99.90;;;;;;4980027;28;20189;-74
2020/12/04 08:30:17;;;;;;;0.20;0.20;;;8.50;99.90;;;;;;4979185;28;20162;-74
2020/12/04 08:32:45;;;;;;;0.20;0.20;;;8.50;99.90;;;;;;4978456;28;20209;-74
2020/12/04 08:35:19;;;;;;;0.25;0.25;;;8.30;99.90;;;;;;4977517;28;20177;-74
2020/12/04 08:37:46;;;;;;;0.10;0.10;;;8.40;99.90;;;;;;4976926;28;20170;-74
2020/12/04 08:40:22;;;;;;;0.10;0.10;;;8.40;99.90;;;;;;4975495;28;20179;-74
2020/12/04 08:42:47;;;;;;;0.30;0.30;;;8.40;99.90;;;;;;4976764;28;20197;-74
2020/12/04 08:45:13;;;;;;;0.35;0.28;;;8.40;99.90;;;;;;4975323;28;20173;-73
2020/12/04 08:47:44;;;;;;;0.20;0.20;;;8.50;99.90;;;;;;4976090;28;20220;-74
2020/12/04 08:50:20;;;;;;;0.52;0.52;;;8.60;99.90;;;;;;4976419;28;20186;-74
2020/12/04 08:52:50;;;;;;;0.20;0.20;;;8.60;99.90;;;;;;4975989;28;20205;-74
2020/12/04 08:55:18;;;;;;;0.20;0.20;;;8.50;99.90;;;;;;4976371;28;20178;-73
2020/12/04 08:57:45;;;;;;;0.17;0.17;;;8.50;99.90;;;;;;4974469;28;20170;-74
2020/12/04 09:00:14;;;;;;;0.20;0.20;;;8.40;99.90;;;;;;4975789;28;20181;-74
2020/12/04 09:02:40;;;;;;;0.10;0.10;;;8.40;99.90;;;;;;4975389;28;20680;-74
2020/12/04 09:05:08;;;;;;;0.10;0.10;;;8.30;99.90;;;;;;4975924;28;20181;-74
2020/12/04 09:07:34;;;;;;;0.20;0.20;;;8.30;99.90;;;;;;4975799;28;20170;-73
2020/12/04 09:09:59;;;;;;;0.20;0.20;;;8.20;99.90;;;;;;4972266;28;20174;-73
2020/12/04 09:12:25;;;;;;;2.30;1.10;;;8.20;99.90;;;;;;4972695;28;20220;-73
2020/12/04 09:14:51;;;;;;;0.15;0.15;;;8.30;99.90;;;;;;4974136;28;20174;-73
2020/12/04 09:17:18;;;;;;;0.20;0.20;;;8.50;99.90;;;;;;4972217;28;20174;-73
2020/12/04 09:19:47;;;;;;;0.20;0.20;;;8.30;99.90;;;;;;4975146;28;20272;-73
2020/12/04 09:22:14;;;;;;;0.20;0.20;;;8.20;99.90;;;;;;4975314;28;20264;-74
2020/12/04 09:24:40;;;;;;;0.20;0.20;;;8.10;99.90;;;;;;4975343;28;20186;-74
2020/12/04 09:27:06;;;;;;;0.20;0.20;;;8.10;99.90;;;;;;4975109;28;20743;-74
2020/12/04 09:29:32;;;;;;;0.15;0.15;;;8.10;99.90;;;;;;4974855;28;20293;-73
2020/12/04 09:32:04;;;;;;;1.55;0.88;;;8.00;99.90;;;;;;4976154;28;20192;-74
2020/12/04 09:34:30;;;;;;;1.33;0.60;;;8.00;99.90;;;;;;4975993;28;20998;-74
2020/12/04 09:37:08;;;;;;;0.25;0.25;;;7.90;99.90;;;;;;4975160;28;20221;-74
2020/12/04 09:39:34;;;;;;;0.20;0.20;;;7.90;99.90;;;;;;4973642;28;20543;-72
2020/12/04 09:41:59;;;;;;;0.38;0.38;;;8.00;99.90;;;;;;4974900;28;20269;-74
2020/12/04 09:44:25;;;;;;;0.20;0.20;;;8.00;99.90;;;;;;4974969;28;20633;-75
2020/12/04 09:46:51;;;;;;;0.20;0.20;;;7.90;99.90;;;;;;4975142;28;20502;-74
2020/12/04 09:49:16;;;;;;;0.20;0.20;;;7.90;99.90;;;;;;4974411;28;20248;-73
2020/12/04 09:51:42;;;;;;;0.32;0.32;;;7.90;99.90;;;;;;4974956;28;20598;-73
2020/12/04 09:54:07;;;;;;;0.10;0.10;;;7.90;99.90;;;;;;4973404;28;20640;-75
2020/12/04 09:56:33;;;;;;;0.10;0.10;;;7.90;99.90;;;;;;4974845;28;20185;-75
2020/12/04 09:58:58;;;;;;;0.20;0.20;;;8.10;99.90;;;;;;4974722;28;20196;-73
2020/12/04 10:01:24;;;;;;;0.77;0.77;;;8.20;99.90;;;;;;4974662;28;20567;-74
2020/12/04 10:03:50;;;;;;;0.10;0.10;;;8.10;99.90;;;;;;4972529;28;20201;-75
2020/12/04 10:06:16;;;;;;;0.10;0.10;;;8.20;99.90;;;;;;4973329;28;20253;-74
2020/12/04 10:08:41;;;;;;;0.20;0.20;;;8.20;99.90;;;;;;4973306;28;20317;-74
2020/12/04 10:11:09;;;;;;;0.43;0.43;;;8.40;99.90;;;;;;4973829;28;20204;-74
2020/12/04 10:13:34;;;;;;;0.20;0.20;;;8.30;99.90;;;;;;4973865;28;20296;-74
2020/12/04 10:16:04;;;;;;;0.30;0.30;;;8.30;99.90;;;;;;4974023;28;20256;-73
2020/12/04 10:18:31;;;;;;;0.50;0.50;;;8.30;99.90;;;;;;4974006;28;20169;-74
2020/12/04 10:20:57;;;;;;;0.43;0.43;;;8.50;99.90;;;;;;4974171;28;20166;-75
2020/12/04 10:23:23;;;;;;;0.20;0.20;;;8.60;99.90;;;;;;4972486;28;20177;-75
2020/12/04 10:25:48;;;;;;;0.73;0.73;;;8.60;99.90;;;;;;4973521;28;20210;-72
2020/12/04 10:28:14;;;;;;;0.20;0.20;;;8.60;99.90;;;;;;4972540;28;20277;-74
2020/12/04 10:30:39;;;;;;;0.20;0.20;;;8.50;99.90;;;;;;4973813;28;20181;-73
2020/12/04 10:33:05;;;;;;;0.35;0.35;;;8.50;99.90;;;;;;4973733;28;20205;-73
2020/12/04 10:35:30;;;;;;;0.40;0.40;;;8.60;99.90;;;;;;4974158;28;20201;-74
2020/12/04 10:37:56;;;;;;;0.13;0.13;;;8.70;99.90;;;;;;4973956;28;20531;-73
2020/12/04 10:40:22;;;;;;;0.28;0.28;;;8.50;99.90;;;;;;4973692;28;20523;-74
2020/12/04 10:42:47;;;;;;;0.20;0.20;;;8.40;99.90;;;;;;4973579;28;20198;-73
2020/12/04 10:45:13;;;;;;;6.65;1.40;;;8.50;99.90;;;;;;4974061;28;20166;-73
2020/12/04 10:47:38;;;;;;;0.47;0.47;;;8.60;99.90;;;;;;4973684;28;20184;-74
2020/12/04 10:50:04;;;;;;;0.10;0.10;;;8.60;99.90;;;;;;4973187;28;20205;-75
2020/12/04 10:52:29;;;;;;;0.20;0.20;;;8.70;99.90;;;;;;4971200;28;20610;-73
2020/12/04 10:54:55;;;;;;;0.20;0.20;;;8.70;99.90;;;;;;4959750;28;20206;-73
2020/12/04 10:57:20;;;;;;;0.20;0.20;;;8.80;99.90;;;;;;4975682;28;20193;-75
2020/12/04 10:59:46;;;;;;;0.68;0.68;;;8.70;99.90;;;;;;4977127;28;20244;-73
2020/12/04 11:02:24;;;;;;;0.50;0.50;;;8.80;99.90;;;;;;4965680;28;20198;-84
2020/12/04 11:07:34;;;;;;;0.30;0.30;;;9.00;99.90;;;;;;4955286;29;20700;-74
2020/12/04 11:10:00;;;;;;;0.10;0.10;;;9.00;99.90;;;;;;4953299;28;20378;-74
2020/12/04 11:12:25;;;;;;;0.10;0.10;;;8.80;99.90;;;;;;4954668;28;20210;-74
2020/12/04 11:14:51;;;;;;;0.13;0.13;;;8.60;99.90;;;;;;4954883;28;20301;-74
2020/12/04 11:17:16;;;;;;;0.30;0.30;;;8.70;99.90;;;;;;4954355;28;20253;-75
2020/12/04 11:19:42;;;;;;;0.20;0.20;;;8.60;99.90;;;;;;4969477;28;20229;-73
2020/12/04 11:22:07;;;;;;;0.20;0.20;;;8.60;99.90;;;;;;4973924;28;20229;-74
2020/12/04 11:24:33;;;;;;;0.20;0.20;;;8.80;99.90;;;;;;4973906;28;20202;-74
2020/12/04 11:26:59;;;;;;;0.50;0.50;;;8.80;99.90;;;;;;4973396;28;20284;-74
2020/12/04 11:29:26;;;;;;;0.20;0.20;;;8.80;99.90;;;;;;4972051;28;20174;-74
2020/12/04 11:31:51;;;;;;;0.57;0.57;;;8.70;99.90;;;;;;4973312;28;20637;-75
2020/12/04 11:34:17;;;;;;;0.30;0.30;;;8.70;99.90;;;;;;4973560;28;20170;-75
2020/12/04 11:36:42;;;;;;;0.38;0.38;;;8.70;99.90;;;;;;4973732;28;20166;-75
2020/12/04 11:39:08;;;;;;;0.52;0.52;;;8.60;99.90;;;;;;4973372;28;20249;-74
2020/12/04 11:41:33;;;;;;;0.43;0.43;;;8.60;99.90;;;;;;4973365;28;20189;-75
2020/12/04 11:43:59;;;;;;;0.15;0.15;;;8.70;99.90;;;;;;4972246;28;20174;-75
2020/12/04 11:46:25;;;;;;;0.20;0.20;;;8.80;99.90;;;;;;4973783;28;20209;-74
2020/12/04 11:48:50;;;;;;;0.10;0.10;;;8.90;99.90;;;;;;4973739;28;20174;-74
2020/12/04 11:51:16;;;;;;;0.10;0.10;;;8.90;99.90;;;;;;4973472;28;20273;-74
2020/12/04 11:53:42;;;;;;;0.22;0.22;;;8.90;99.90;;;;;;4973195;28;20666;-74
2020/12/04 11:56:09;;;;;;;1.15;0.95;;;8.90;99.90;;;;;;4973693;28;20201;-73
2020/12/04 11:58:34;;;;;;;0.10;0.10;;;8.90;99.90;;;;;;4972302;28;20185;-74
2020/12/04 12:01:00;;;;;;;0.10;0.10;;;9.00;99.90;;;;;;4972899;28;20286;-75
2020/12/04 12:03:26;;;;;;;0.20;0.20;;;8.80;99.90;;;;;;4973305;28;20166;-74
2020/12/04 12:05:51;;;;;;;0.20;0.20;;;8.90;99.90;;;;;;4973567;28;20158;-74
2020/12/04 12:08:17;;;;;;;0.10;0.10;;;9.00;99.90;;;;;;4973415;28;20169;-74
2020/12/04 12:10:42;;;;;;;0.10;0.10;;;9.10;99.90;;;;;;4972925;28;20594;-74
2020/12/04 12:13:08;;;;;;;0.10;0.10;;;9.20;99.90;;;;;;4973342;28;20202;-75
2020/12/04 12:15:33;;;;;;;0.20;0.20;;;9.00;99.90;;;;;;4973474;28;20166;-74
2020/12/04 12:17:59;;;;;;;0.10;0.10;;;8.80;99.90;;;;;;4971835;28;20177;-75
2020/12/04 12:20:24;;;;;;;0.20;0.20;;;8.50;99.90;;;;;;4973307;28;20558;-74
2020/12/04 12:22:50;;;;;;;1.95;1.02;;;8.40;99.90;;;;;;4973234;28;20682;-74
2020/12/04 12:25:17;;;;;;;0.10;0.10;;;8.20;99.90;;;;;;4973304;28;20236;-75
2020/12/04 12:27:42;;;;;;;0.10;0.10;;;8.20;99.90;;;;;;4978815;28;20188;-74
2020/12/04 12:30:08;;;;;;;1.05;1.05;;;8.20;99.90;;;;;;4983806;28;20169;-74
2020/12/04 12:32:34;;;;;;;0.15;0.15;;;8.30;99.90;;;;;;4992603;28;20205;-72
2020/12/04 12:35:05;;;;;;;0.20;0.20;;;8.20;99.90;;;;;;4992723;28;20176;-73
2020/12/04 12:37:32;;;;;;;0.10;0.10;;;8.20;99.90;;;;;;4992788;28;20161;-72
2020/12/04 12:40:00;;;;;;;0.20;0.20;;;8.10;99.90;;;;;;4995959;28;20200;-74
2020/12/04 12:42:26;;;;;;;0.10;0.10;;;8.10;99.90;;;;;;4995693;28;20246;-75
2020/12/04 12:44:51;;;;;;;0.20;0.20;;;8.20;99.90;;;;;;4996174;28;20181;-74
2020/12/04 12:47:17;;;;;;;0.10;0.10;;;8.20;99.90;;;;;;4995877;28;20169;-73
2020/12/04 12:49:45;;;;;;;0.20;0.20;;;8.20;99.90;;;;;;4979055;28;20186;-74
2020/12/04 12:52:12;;;;;;;2.72;1.13;;;8.20;99.90;;;;;;4976381;28;20296;-74
2020/12/04 12:54:38;;;;;;;0.10;0.10;;;8.20;99.90;;;;;;4976388;28;20173;-76
2020/12/04 12:57:04;;;;;;;0.55;0.55;;;8.20;99.90;;;;;;4976246;28;20525;-76
2020/12/04 12:59:29;;;;;;;0.10;0.10;;;8.20;99.90;;;;;;4976492;28;20165;-74
2020/12/04 13:01:55;;;;;;;0.20;0.20;;;8.20;99.90;;;;;;4976494;28;20197;-75
2020/12/04 13:04:23;;;;;;;0.20;0.20;;;8.10;99.90;;;;;;4976276;28;20705;-77